Los Corrales de Buelna, Spain
Current Conditions -  °F | °C
As of 11:00 PM on Friday 26 Dec 2014 (Local Time) from LEXJ Reporting Station
Broken Clouds Broken Clouds  
Wind Chill: 52°   Ceiling: 4400
Heat Index: 52°   Visibility: 6mi
Dew Point: 50°   Wind: 7mph
Humidity: 94%   Direction: 230°SW
Pressure: 30.42"   Gusts: NA
Location:  43.26°N, 4.07°W
Report Text: LEXJ 262200Z 23006KT 9999 FEW020 BKN044 11/10 Q1030
Loading
Personal Weather Stations






























Interactive Weather Map New forecast layout! Learn more

10-Day Weather Forecast

Advertisements
Track Severe Weather on mobile